JBU2587 KJFK-KDCA
Flight info
| Callsign | JBU2587 |
|---|---|
| Flight time | 0h 46m |
| Altitude | 36000 |
| Route | RBV Q430 COPES Q75 MXE CLIPR3 |
| Aircraft | A20N/L-SDE2E3FGHIJ1RWXY/LB1 |
Departure
| Time | 2026-04-19 23:47 |
|---|---|
| Airport | John F. Kennedy International Airport (KJFK) |
Arrival
| Time | 2026-04-20 00:33 |
|---|---|
| Airport | Ronald Reagan Washington National Airport (KDCA) |
| Time | Latitude | Longitude | Altitude | Speed | Heading |
|---|---|---|---|---|---|
| 2026-04-19 23:22 | 40.63895 | -73.78702 | 21 ft | 0 kts | 98° |
| 2026-04-19 23:41 | 40.63886 | -73.78670 | 21 ft | 7 kts | 118° |
| 2026-04-19 23:41 | 40.63837 | -73.78597 | 21 ft | 14 kts | 146° |
| 2026-04-19 23:41 | 40.63723 | -73.78557 | 21 ft | 18 kts | 178° |
| 2026-04-19 23:42 | 40.63658 | -73.78571 | 21 ft | 5 kts | 152° |
| 2026-04-19 23:42 | 40.63627 | -73.78526 | 21 ft | 9 kts | 120° |
| 2026-04-19 23:42 | 40.63583 | -73.78424 | 21 ft | 15 kts | 119° |
| 2026-04-19 23:42 | 40.63520 | -73.78283 | 21 ft | 17 kts | 123° |
| 2026-04-19 23:43 | 40.63456 | -73.78145 | 21 ft | 17 kts | 120° |
| 2026-04-19 23:43 | 40.63414 | -73.78050 | 21 ft | 0 kts | 122° |
| 2026-04-19 23:43 | 40.63403 | -73.78048 | 21 ft | 5 kts | 176° |
| 2026-04-19 23:44 | 40.63341 | -73.78082 | 21 ft | 12 kts | 209° |
| 2026-04-19 23:44 | 40.63268 | -73.78136 | 21 ft | 10 kts | 232° |
| 2026-04-19 23:44 | 40.63276 | -73.78226 | 21 ft | 10 kts | 304° |
| 2026-04-19 23:44 | 40.63280 | -73.78236 | 21 ft | 0 kts | 296° |
| 2026-04-19 23:46 | 40.63280 | -73.78237 | 21 ft | 0 kts | 296° |
| 2026-04-19 23:46 | 40.63328 | -73.78350 | 21 ft | 50 kts | 299° |
| 2026-04-19 23:46 | 40.63646 | -73.79050 | 21 ft | 125 kts | 300° |
| 2026-04-19 23:46 | 40.64209 | -73.80274 | 40 ft | 182 kts | 301° |
| 2026-04-19 23:47 | 40.64896 | -73.81786 | 489 ft | 197 kts | 300° |
| 2026-04-19 23:47 | 40.65317 | -73.83426 | 1289 ft | 189 kts | 263° |
| 2026-04-19 23:47 | 40.64816 | -73.84853 | 2006 ft | 174 kts | 214° |
| 2026-04-19 23:47 | 40.63708 | -73.85692 | 2237 ft | 207 kts | 203° |
| 2026-04-19 23:48 | 40.62332 | -73.86858 | 2279 ft | 254 kts | 208° |
| 2026-04-19 23:48 | 40.60838 | -73.88087 | 3302 ft | 252 kts | 210° |
| 2026-04-19 23:48 | 40.59476 | -73.89398 | 4510 ft | 245 kts | 219° |
| 2026-04-19 23:48 | 40.58210 | -73.90968 | 5395 ft | 251 kts | 223° |
| 2026-04-19 23:49 | 40.56955 | -73.92588 | 6251 ft | 257 kts | 221° |
| 2026-04-19 23:49 | 40.55558 | -73.94057 | 7185 ft | 258 kts | 216° |
| 2026-04-19 23:49 | 40.54047 | -73.95342 | 8109 ft | 260 kts | 213° |
| 2026-04-19 23:49 | 40.52477 | -73.96627 | 8879 ft | 267 kts | 213° |
| 2026-04-19 23:50 | 40.50894 | -73.97922 | 9659 ft | 271 kts | 213° |
| 2026-04-19 23:50 | 40.49268 | -73.99251 | 10337 ft | 277 kts | 213° |
| 2026-04-19 23:50 | 40.47622 | -74.00590 | 11034 ft | 281 kts | 213° |
| 2026-04-19 23:50 | 40.45940 | -74.01960 | 11749 ft | 284 kts | 214° |
| 2026-04-19 23:51 | 40.44240 | -74.03343 | 12460 ft | 287 kts | 214° |
| 2026-04-19 23:51 | 40.42544 | -74.04724 | 13191 ft | 289 kts | 215° |
| 2026-04-19 23:51 | 40.40838 | -74.06113 | 13859 ft | 292 kts | 215° |
| 2026-04-19 23:51 | 40.39099 | -74.07532 | 14552 ft | 294 kts | 214° |
| 2026-04-19 23:52 | 40.37378 | -74.08935 | 15215 ft | 296 kts | 215° |
| 2026-04-19 23:52 | 40.35584 | -74.10396 | 15840 ft | 301 kts | 215° |
| 2026-04-19 23:52 | 40.33783 | -74.11861 | 16586 ft | 301 kts | 215° |
| 2026-04-19 23:52 | 40.32013 | -74.13296 | 17417 ft | 298 kts | 214° |
| 2026-04-19 23:53 | 40.30221 | -74.14748 | 18098 ft | 300 kts | 214° |
| 2026-04-19 23:53 | 40.28416 | -74.16212 | 18723 ft | 303 kts | 214° |
| 2026-04-19 23:53 | 40.26604 | -74.17679 | 19336 ft | 306 kts | 214° |
| 2026-04-19 23:53 | 40.24804 | -74.19187 | 19944 ft | 307 kts | 221° |
| 2026-04-19 23:54 | 40.23408 | -74.21266 | 20532 ft | 306 kts | 242° |
| 2026-04-19 23:54 | 40.22698 | -74.23910 | 21116 ft | 309 kts | 261° |
| 2026-04-19 23:54 | 40.22438 | -74.26697 | 21700 ft | 311 kts | 262° |
| 2026-04-19 23:54 | 40.22177 | -74.29533 | 22257 ft | 315 kts | 262° |
| 2026-04-19 23:55 | 40.21909 | -74.32390 | 22824 ft | 317 kts | 262° |
| 2026-04-19 23:55 | 40.21630 | -74.35294 | 23356 ft | 321 kts | 262° |
| 2026-04-19 23:55 | 40.21445 | -74.37222 | 23709 ft | 323 kts | 262° |
| 2026-04-19 23:55 | 40.21168 | -74.40095 | 24255 ft | 325 kts | 262° |
| 2026-04-19 23:56 | 40.20786 | -74.44034 | 24992 ft | 328 kts | 262° |
| 2026-04-19 23:56 | 40.20499 | -74.46989 | 25505 ft | 332 kts | 262° |
| 2026-04-19 23:56 | 40.20209 | -74.50001 | 26023 ft | 334 kts | 263° |
| 2026-04-19 23:56 | 40.19967 | -74.52994 | 26519 ft | 337 kts | 264° |
| 2026-04-19 23:57 | 40.19738 | -74.56064 | 27022 ft | 340 kts | 264° |
| 2026-04-19 23:57 | 40.19506 | -74.59104 | 27498 ft | 342 kts | 264° |
| 2026-04-19 23:57 | 40.19270 | -74.62198 | 27952 ft | 345 kts | 264° |
| 2026-04-19 23:57 | 40.19023 | -74.65380 | 28392 ft | 347 kts | 263° |
| 2026-04-19 23:58 | 40.18777 | -74.68510 | 28836 ft | 349 kts | 263° |
| 2026-04-19 23:58 | 40.18530 | -74.71674 | 29204 ft | 352 kts | 263° |
| 2026-04-19 23:58 | 40.18279 | -74.74861 | 29095 ft | 351 kts | 263° |
| 2026-04-19 23:58 | 40.18026 | -74.78027 | 28792 ft | 352 kts | 263° |
| 2026-04-19 23:59 | 40.17766 | -74.81267 | 28433 ft | 370 kts | 263° |
| 2026-04-19 23:59 | 40.17493 | -74.84668 | 28053 ft | 380 kts | 263° |
| 2026-04-19 23:59 | 40.17213 | -74.88149 | 27673 ft | 381 kts | 263° |
| 2026-04-19 23:59 | 40.16933 | -74.91613 | 27293 ft | 379 kts | 263° |
| 2026-04-20 00:00 | 40.16654 | -74.95042 | 26917 ft | 377 kts | 263° |
| 2026-04-20 00:00 | 40.16373 | -74.98470 | 26537 ft | 375 kts | 263° |
| 2026-04-20 00:00 | 40.16095 | -75.01871 | 26160 ft | 372 kts | 263° |
| 2026-04-20 00:00 | 40.15812 | -75.05299 | 25777 ft | 370 kts | 263° |
| 2026-04-20 00:01 | 40.15535 | -75.08649 | 25400 ft | 368 kts | 263° |
| 2026-04-20 00:01 | 40.15253 | -75.12047 | 25017 ft | 367 kts | 263° |
| 2026-04-20 00:01 | 40.14700 | -75.18652 | 24268 ft | 362 kts | 263° |
| 2026-04-20 00:02 | 40.14426 | -75.21917 | 23913 ft | 359 kts | 263° |
| 2026-04-20 00:02 | 40.14148 | -75.25187 | 23559 ft | 358 kts | 263° |
| 2026-04-20 00:02 | 40.13873 | -75.28438 | 23209 ft | 355 kts | 263° |
| 2026-04-20 00:02 | 40.13601 | -75.31651 | 22856 ft | 354 kts | 263° |
| 2026-04-20 00:03 | 40.13253 | -75.34839 | 22498 ft | 351 kts | 256° |
| 2026-04-20 00:03 | 40.12415 | -75.37779 | 22158 ft | 349 kts | 241° |
| 2026-04-20 00:03 | 40.10982 | -75.40318 | 21954 ft | 347 kts | 232° |
| 2026-04-20 00:03 | 40.09419 | -75.42752 | 21769 ft | 348 kts | 231° |
| 2026-04-20 00:04 | 40.07871 | -75.45161 | 21536 ft | 347 kts | 232° |
| 2026-04-20 00:04 | 40.06334 | -75.47563 | 21302 ft | 345 kts | 231° |
| 2026-04-20 00:04 | 40.04789 | -75.49973 | 21070 ft | 345 kts | 231° |
| 2026-04-20 00:04 | 40.03272 | -75.52337 | 20836 ft | 343 kts | 232° |
| 2026-04-20 00:05 | 40.01732 | -75.54742 | 20601 ft | 341 kts | 232° |
| 2026-04-20 00:05 | 40.00220 | -75.57100 | 20367 ft | 341 kts | 232° |
| 2026-04-20 00:05 | 39.98687 | -75.59489 | 20130 ft | 339 kts | 232° |
| 2026-04-20 00:05 | 39.97194 | -75.61810 | 19896 ft | 338 kts | 232° |
| 2026-04-20 00:06 | 39.95686 | -75.64156 | 19660 ft | 337 kts | 231° |
| 2026-04-20 00:06 | 39.94185 | -75.66490 | 19425 ft | 335 kts | 231° |
| 2026-04-20 00:06 | 39.92697 | -75.68813 | 19189 ft | 334 kts | 231° |
| 2026-04-20 00:06 | 39.91195 | -75.71159 | 18952 ft | 334 kts | 231° |
| 2026-04-20 00:07 | 39.89706 | -75.73473 | 18716 ft | 332 kts | 231° |
| 2026-04-20 00:07 | 39.88223 | -75.75758 | 18479 ft | 330 kts | 231° |
| 2026-04-20 00:07 | 39.86734 | -75.78046 | 18241 ft | 328 kts | 231° |
| 2026-04-20 00:07 | 39.85237 | -75.80347 | 18000 ft | 327 kts | 231° |
| 2026-04-20 00:08 | 39.83752 | -75.82632 | 17761 ft | 327 kts | 231° |
| 2026-04-20 00:08 | 39.82278 | -75.84903 | 17522 ft | 325 kts | 231° |
| 2026-04-20 00:08 | 39.80797 | -75.87184 | 17283 ft | 324 kts | 231° |
| 2026-04-20 00:08 | 39.79338 | -75.89432 | 17040 ft | 322 kts | 231° |
| 2026-04-20 00:09 | 39.77887 | -75.91668 | 16801 ft | 320 kts | 231° |
| 2026-04-20 00:09 | 39.76444 | -75.93887 | 16563 ft | 319 kts | 231° |
| 2026-04-20 00:09 | 39.75000 | -75.96112 | 16323 ft | 318 kts | 231° |
| 2026-04-20 00:09 | 39.73564 | -75.98319 | 16083 ft | 317 kts | 231° |
| 2026-04-20 00:10 | 39.72129 | -76.00525 | 15842 ft | 315 kts | 231° |
| 2026-04-20 00:10 | 39.70703 | -76.02711 | 15600 ft | 314 kts | 231° |
| 2026-04-20 00:10 | 39.69284 | -76.04890 | 15360 ft | 312 kts | 232° |
| 2026-04-20 00:10 | 39.67876 | -76.07047 | 15118 ft | 311 kts | 231° |
| 2026-04-20 00:11 | 39.66463 | -76.09216 | 14875 ft | 311 kts | 232° |
| 2026-04-20 00:11 | 39.65053 | -76.11376 | 14632 ft | 309 kts | 232° |
| 2026-04-20 00:11 | 39.63649 | -76.13526 | 14388 ft | 308 kts | 232° |
| 2026-04-20 00:11 | 39.62265 | -76.15645 | 14149 ft | 307 kts | 232° |
| 2026-04-20 00:12 | 39.60867 | -76.17779 | 13906 ft | 306 kts | 232° |
| 2026-04-20 00:12 | 39.59501 | -76.19865 | 13666 ft | 304 kts | 231° |
| 2026-04-20 00:12 | 39.58127 | -76.21967 | 13427 ft | 304 kts | 231° |
| 2026-04-20 00:12 | 39.56763 | -76.24046 | 13185 ft | 303 kts | 231° |
| 2026-04-20 00:13 | 39.55400 | -76.26125 | 12945 ft | 301 kts | 231° |
| 2026-04-20 00:13 | 39.54037 | -76.28203 | 12702 ft | 302 kts | 231° |
| 2026-04-20 00:13 | 39.52677 | -76.30268 | 12461 ft | 301 kts | 231° |
| 2026-04-20 00:13 | 39.51321 | -76.32330 | 12219 ft | 300 kts | 231° |
| 2026-04-20 00:14 | 39.49970 | -76.34383 | 12012 ft | 298 kts | 231° |
| 2026-04-20 00:14 | 39.48620 | -76.36440 | 11971 ft | 297 kts | 231° |
| 2026-04-20 00:14 | 39.47272 | -76.38480 | 11963 ft | 298 kts | 231° |
| 2026-04-20 00:14 | 39.45898 | -76.40537 | 11958 ft | 299 kts | 229° |
| 2026-04-20 00:15 | 39.44358 | -76.42425 | 11927 ft | 297 kts | 222° |
| 2026-04-20 00:15 | 39.42703 | -76.44025 | 11540 ft | 297 kts | 217° |
| 2026-04-20 00:15 | 39.40971 | -76.45537 | 11050 ft | 298 kts | 216° |
| 2026-04-20 00:15 | 39.39231 | -76.47038 | 10639 ft | 296 kts | 215° |
| 2026-04-20 00:16 | 39.37524 | -76.48506 | 10426 ft | 287 kts | 215° |
| 2026-04-20 00:16 | 39.35882 | -76.49918 | 10238 ft | 277 kts | 216° |
| 2026-04-20 00:16 | 39.34295 | -76.51289 | 10008 ft | 272 kts | 216° |
| 2026-04-20 00:16 | 39.32695 | -76.52670 | 9972 ft | 273 kts | 216° |
| 2026-04-20 00:17 | 39.31110 | -76.54041 | 9968 ft | 273 kts | 216° |
| 2026-04-20 00:17 | 39.29509 | -76.55421 | 9964 ft | 274 kts | 216° |
| 2026-04-20 00:17 | 39.27913 | -76.56800 | 9966 ft | 272 kts | 216° |
| 2026-04-20 00:17 | 39.26324 | -76.58172 | 9965 ft | 274 kts | 216° |
| 2026-04-20 00:18 | 39.24736 | -76.59541 | 9963 ft | 274 kts | 215° |
| 2026-04-20 00:18 | 39.23137 | -76.60919 | 9961 ft | 274 kts | 216° |
| 2026-04-20 00:18 | 39.21555 | -76.62279 | 9962 ft | 274 kts | 216° |
| 2026-04-20 00:18 | 39.19942 | -76.63669 | 9962 ft | 274 kts | 216° |
| 2026-04-20 00:19 | 39.18382 | -76.65011 | 9963 ft | 273 kts | 216° |
| 2026-04-20 00:19 | 39.16842 | -76.66505 | 9962 ft | 272 kts | 220° |
| 2026-04-20 00:19 | 39.15420 | -76.68130 | 9965 ft | 271 kts | 224° |
| 2026-04-20 00:19 | 39.14034 | -76.69781 | 9960 ft | 272 kts | 224° |
| 2026-04-20 00:20 | 39.12621 | -76.71464 | 9961 ft | 273 kts | 223° |
| 2026-04-20 00:20 | 39.11214 | -76.73135 | 9963 ft | 273 kts | 223° |
| 2026-04-20 00:20 | 39.09831 | -76.74777 | 9961 ft | 271 kts | 223° |
| 2026-04-20 00:20 | 39.08416 | -76.76451 | 9961 ft | 272 kts | 223° |
| 2026-04-20 00:21 | 39.07005 | -76.78123 | 9962 ft | 273 kts | 223° |
| 2026-04-20 00:21 | 39.05596 | -76.79787 | 9962 ft | 274 kts | 223° |
| 2026-04-20 00:21 | 39.04196 | -76.81442 | 9960 ft | 273 kts | 223° |
| 2026-04-20 00:21 | 39.02790 | -76.83101 | 9963 ft | 273 kts | 223° |
| 2026-04-20 00:22 | 39.01388 | -76.84751 | 9961 ft | 271 kts | 224° |
| 2026-04-20 00:22 | 38.99995 | -76.86395 | 9962 ft | 271 kts | 223° |
| 2026-04-20 00:22 | 38.98595 | -76.88048 | 9963 ft | 273 kts | 223° |
| 2026-04-20 00:22 | 38.97201 | -76.89678 | 9962 ft | 273 kts | 221° |
| 2026-04-20 00:23 | 38.95739 | -76.91235 | 9962 ft | 272 kts | 220° |
| 2026-04-20 00:23 | 38.94243 | -76.92786 | 9962 ft | 271 kts | 217° |
| 2026-04-20 00:23 | 38.92540 | -76.93850 | 9961 ft | 274 kts | 197° |
| 2026-04-20 00:23 | 38.90616 | -76.94141 | 9970 ft | 280 kts | 185° |
| 2026-04-20 00:24 | 38.88663 | -76.94191 | 9965 ft | 280 kts | 184° |
| 2026-04-20 00:24 | 38.86692 | -76.94231 | 9966 ft | 281 kts | 184° |
| 2026-04-20 00:24 | 38.84709 | -76.94276 | 9966 ft | 280 kts | 184° |
| 2026-04-20 00:24 | 38.82760 | -76.94331 | 9964 ft | 280 kts | 185° |
| 2026-04-20 00:25 | 38.80804 | -76.94387 | 9964 ft | 279 kts | 185° |
| 2026-04-20 00:25 | 38.78861 | -76.94445 | 9963 ft | 281 kts | 184° |
| 2026-04-20 00:25 | 38.76896 | -76.94373 | 9965 ft | 281 kts | 179° |
| 2026-04-20 00:25 | 38.74945 | -76.94190 | 9966 ft | 282 kts | 179° |
| 2026-04-20 00:26 | 38.72966 | -76.93996 | 9964 ft | 282 kts | 179° |
| 2026-04-20 00:26 | 38.71005 | -76.93806 | 9968 ft | 282 kts | 179° |
| 2026-04-20 00:26 | 38.69043 | -76.93616 | 9965 ft | 283 kts | 179° |
| 2026-04-20 00:26 | 38.67096 | -76.93433 | 9964 ft | 282 kts | 180° |
| 2026-04-20 00:27 | 38.65116 | -76.93256 | 9967 ft | 282 kts | 179° |
| 2026-04-20 00:27 | 38.63163 | -76.93081 | 9966 ft | 281 kts | 179° |
| 2026-04-20 00:27 | 38.61196 | -76.92935 | 9965 ft | 281 kts | 185° |
| 2026-04-20 00:27 | 38.59360 | -76.93555 | 9828 ft | 269 kts | 215° |
| 2026-04-20 00:28 | 38.58084 | -76.95221 | 9438 ft | 261 kts | 239° |
| 2026-04-20 00:28 | 38.57452 | -76.97337 | 8763 ft | 263 kts | 259° |
| 2026-04-20 00:28 | 38.57490 | -76.99680 | 8060 ft | 266 kts | 280° |
| 2026-04-20 00:28 | 38.58215 | -77.01834 | 7371 ft | 271 kts | 302° |
| 2026-04-20 00:29 | 38.59607 | -77.03517 | 6648 ft | 279 kts | 325° |
| 2026-04-20 00:29 | 38.61457 | -77.04340 | 5964 ft | 285 kts | 351° |
| 2026-04-20 00:29 | 38.63428 | -77.04112 | 5254 ft | 289 kts | 15° |
| 2026-04-20 00:29 | 38.65301 | -77.03329 | 4830 ft | 277 kts | 18° |
| 2026-04-20 00:30 | 38.67108 | -77.02541 | 4347 ft | 268 kts | 18° |
| 2026-04-20 00:30 | 38.68899 | -77.02095 | 3549 ft | 263 kts | 0° |
| 2026-04-20 00:30 | 38.70742 | -77.02207 | 2668 ft | 264 kts | 355° |
| 2026-04-20 00:30 | 38.72538 | -77.02447 | 2219 ft | 259 kts | 357° |
| 2026-04-20 00:31 | 38.74309 | -77.02686 | 1972 ft | 252 kts | 357° |
| 2026-04-20 00:31 | 38.76032 | -77.02867 | 1640 ft | 243 kts | 360° |
| 2026-04-20 00:31 | 38.77682 | -77.03024 | 1315 ft | 233 kts | 359° |
| 2026-04-20 00:31 | 38.79281 | -77.03185 | 1113 ft | 217 kts | 359° |
| 2026-04-20 00:32 | 38.80747 | -77.03339 | 772 ft | 209 kts | 359° |
| 2026-04-20 00:32 | 38.82165 | -77.03475 | 463 ft | 200 kts | 357° |
| 2026-04-20 00:32 | 38.83521 | -77.03612 | 191 ft | 190 kts | 359° |
| 2026-04-20 00:32 | 38.84812 | -77.03746 | 23 ft | 175 kts | 357° |
| 2026-04-20 00:33 | 38.85857 | -77.03867 | 22 ft | 122 kts | 359° |
| 2026-04-20 00:33 | 38.86147 | -77.03879 | 22 ft | 0 kts | 354° |
| 2026-04-20 00:33 | 38.86154 | -77.03877 | 22 ft | 0 kts | 39° |
| 2026-04-20 00:33 | 38.86150 | -77.03869 | 22 ft | 2 kts | 150° |
| 2026-04-20 00:34 | 38.86126 | -77.03862 | 22 ft | 3 kts | 176° |
| 2026-04-20 00:34 | 38.86097 | -77.03875 | 22 ft | 6 kts | 221° |
| 2026-04-20 00:34 | 38.86063 | -77.03931 | 22 ft | 9 kts | 208° |
| 2026-04-20 00:34 | 38.86038 | -77.03944 | 22 ft | 0 kts | 196° |
| 2026-04-20 00:36 | 38.86027 | -77.03948 | 22 ft | 3 kts | 196° |
| 2026-04-20 00:37 | 38.85991 | -77.03960 | 22 ft | 7 kts | 196° |
| 2026-04-20 00:37 | 38.85936 | -77.04012 | 22 ft | 13 kts | 250° |
| 2026-04-20 00:37 | 38.85925 | -77.04160 | 22 ft | 19 kts | 267° |
| 2026-04-20 00:37 | 38.85880 | -77.04247 | 22 ft | 10 kts | 156° |
| 2026-04-20 00:38 | 38.85817 | -77.04192 | 22 ft | 11 kts | 143° |
| 2026-04-20 00:38 | 38.85747 | -77.04125 | 22 ft | 13 kts | 142° |
| 2026-04-20 00:38 | 38.85663 | -77.04048 | 22 ft | 15 kts | 160° |
| 2026-04-20 00:38 | 38.85554 | -77.04032 | 22 ft | 16 kts | 172° |
| 2026-04-20 00:39 | 38.85440 | -77.04003 | 22 ft | 16 kts | 175° |
| 2026-04-20 00:39 | 38.85317 | -77.03994 | 22 ft | 17 kts | 176° |
| 2026-04-20 00:39 | 38.85192 | -77.03982 | 22 ft | 18 kts | 176° |
| 2026-04-20 00:39 | 38.85063 | -77.03967 | 22 ft | 18 kts | 174° |
| 2026-04-20 00:40 | 38.84934 | -77.03954 | 22 ft | 18 kts | 178° |
| 2026-04-20 00:40 | 38.84804 | -77.03946 | 22 ft | 18 kts | 185° |
| 2026-04-20 00:40 | 38.84742 | -77.04027 | 22 ft | 11 kts | 326° |
| 2026-04-20 00:40 | 38.84792 | -77.04049 | 22 ft | 7 kts | 30° |
| 2026-04-20 00:41 | 38.84842 | -77.04014 | 22 ft | 8 kts | 17° |
| 2026-04-20 00:41 | 38.84854 | -77.04019 | 22 ft | 0 kts | 280° |
| 2026-04-20 00:41 | 38.84856 | -77.04025 | 22 ft | 4 kts | 301° |
| 2026-04-20 00:41 | 38.84875 | -77.04069 | 22 ft | 0 kts | 298° |